createdAt,value
2023-02-27T00:02:05.892Z,96439.66
2023-02-27T00:04:41.005Z,96434.28
2023-02-27T00:07:12.794Z,96434.41
2023-02-27T00:09:44.484Z,96437.31
2023-02-27T00:12:15.975Z,96436.91
2023-02-27T00:14:47.606Z,96440.72
2023-02-27T00:17:19.732Z,96441.81
2023-02-27T00:19:51.438Z,96445.22
2023-02-27T00:22:22.984Z,96440.22
2023-02-27T00:24:54.695Z,96427.00
2023-02-27T00:27:26.304Z,96427.28
2023-02-27T00:29:58.100Z,96441.75
2023-02-27T00:32:33.149Z,96444.59
2023-02-27T00:35:07.019Z,96435.41
2023-02-27T00:37:39.590Z,96443.56
2023-02-27T00:40:12.554Z,96440.09
2023-02-27T00:42:46.246Z,96435.34
2023-02-27T00:45:18.555Z,96429.66
2023-02-27T00:47:50.123Z,96445.97
2023-02-27T00:50:21.748Z,96435.34
2023-02-27T00:52:53.298Z,96436.91
2023-02-27T00:55:27.168Z,96434.72
2023-02-27T00:57:58.936Z,96437.91
2023-02-27T01:00:30.526Z,96433.75
2023-02-27T01:03:02.114Z,96419.63
2023-02-27T01:05:33.770Z,96432.03
2023-02-27T01:08:05.392Z,96427.44
2023-02-27T01:10:37.030Z,96428.66
2023-02-27T01:13:10.340Z,96425.69
2023-02-27T01:15:42.966Z,96422.63
2023-02-27T01:18:14.491Z,96424.78
2023-02-27T01:20:46.038Z,96426.16
2023-02-27T01:23:17.603Z,96419.06
2023-02-27T01:25:49.854Z,96401.66
2023-02-27T01:28:21.619Z,96408.22
2023-02-27T01:30:53.335Z,96420.19
2023-02-27T01:33:24.937Z,96410.91
2023-02-27T01:35:56.558Z,96418.16
2023-02-27T01:38:31.461Z,96426.13
2023-02-27T01:41:05.026Z,96417.50
2023-02-27T01:43:56.291Z,96418.63
2023-02-27T01:46:30.329Z,96410.59
2023-02-27T01:49:24.086Z,96418.47
2023-02-27T01:52:03.285Z,96423.09
2023-02-27T01:54:42.514Z,96419.59
2023-02-27T01:57:15.586Z,96405.63
2023-02-27T01:59:47.346Z,96413.91
2023-02-27T02:02:32.883Z,96412.13
2023-02-27T02:05:07.440Z,96427.41
2023-02-27T02:07:41.801Z,96419.09
2023-02-27T02:10:16.120Z,96413.25
2023-02-27T02:12:47.645Z,96408.06
2023-02-27T02:15:27.901Z,96422.69
2023-02-27T02:18:29.097Z,96408.59
2023-02-27T02:21:57.980Z,96421.81
2023-02-27T02:24:51.486Z,96429.13
2023-02-27T02:27:47.949Z,96410.81
2023-02-27T02:31:06.152Z,96409.25
2023-02-27T02:33:58.811Z,96409.16
2023-02-27T02:37:37.107Z,96398.03
2023-02-27T02:40:30.815Z,96416.22
2023-02-27T02:43:19.467Z,96409.94
2023-02-27T02:46:21.101Z,96413.22
2023-02-27T02:49:02.875Z,96416.31
2023-02-27T02:51:50.906Z,96406.72
2023-02-27T02:54:43.922Z,96414.44
2023-02-27T02:57:26.725Z,96409.59
2023-02-27T03:00:10.661Z,96417.72
2023-02-27T03:02:52.652Z,96416.75
2023-02-27T03:05:37.599Z,96426.69
2023-02-27T03:08:17.291Z,96434.53
2023-02-27T03:10:56.696Z,96426.28
2023-02-27T03:13:31.068Z,96436.00
2023-02-27T03:16:31.570Z,96437.34
2023-02-27T03:19:11.016Z,96434.78
2023-02-27T03:21:51.723Z,96429.53
2023-02-27T03:24:32.501Z,96444.72
2023-02-27T03:27:07.518Z,96444.94
2023-02-27T03:29:47.579Z,96435.88
2023-02-27T03:32:30.131Z,96440.41
2023-02-27T03:35:04.263Z,96430.84
2023-02-27T03:38:01.477Z,96442.22
2023-02-27T03:40:45.517Z,96446.94
2023-02-27T03:43:42.805Z,96440.63
2023-02-27T03:46:18.657Z,96444.00
2023-02-27T03:48:50.479Z,96441.75
2023-02-27T03:51:25.161Z,96442.59
2023-02-27T03:54:11.866Z,96450.94
2023-02-27T03:56:58.855Z,96443.19
2023-02-27T03:59:32.352Z,96443.44
2023-02-27T04:02:04.483Z,96398.91
2023-02-27T04:04:36.119Z,96448.50
2023-02-27T04:07:38.686Z,96454.56
2023-02-27T04:10:39.698Z,96449.47
2023-02-27T04:13:22.511Z,96454.84
2023-02-27T04:16:27.338Z,96469.78
2023-02-27T04:19:30.282Z,96455.44
2023-02-27T04:22:40.085Z,96459.63
2023-02-27T04:25:39.694Z,96464.72
2023-02-27T04:28:21.692Z,96455.91
2023-02-27T04:30:59.104Z,96465.41
2023-02-27T04:34:10.221Z,96473.09
2023-02-27T04:36:43.289Z,96474.00
2023-02-27T04:39:28.905Z,96473.31
2023-02-27T04:42:06.590Z,96475.31
2023-02-27T04:44:39.649Z,96472.78
2023-02-27T04:47:14.152Z,96475.09
2023-02-27T04:50:00.079Z,96470.13
2023-02-27T04:52:40.856Z,96458.97
2023-02-27T04:55:23.504Z,96468.34
2023-02-27T04:58:03.372Z,96476.16
2023-02-27T05:00:38.552Z,96473.47
2023-02-27T05:03:18.188Z,96476.88
2023-02-27T05:05:53.151Z,96478.41
2023-02-27T05:08:53.018Z,96480.25
2023-02-27T05:11:26.749Z,96479.81
2023-02-27T05:14:16.205Z,96464.06
2023-02-27T05:17:09.316Z,96472.66
2023-02-27T05:19:44.374Z,96473.75
2023-02-27T05:23:08.601Z,96477.19
2023-02-27T05:25:51.287Z,96477.50
2023-02-27T05:28:41.977Z,96481.56
2023-02-27T05:31:50.236Z,96475.97
2023-02-27T05:34:29.896Z,96481.16
2023-02-27T05:37:46.301Z,96481.94
2023-02-27T05:40:30.604Z,96487.84
2023-02-27T05:43:12.972Z,96477.50
2023-02-27T05:45:48.546Z,96484.78
2023-02-27T05:48:50.218Z,96477.94
2023-02-27T05:51:28.078Z,96483.91
2023-02-27T05:54:08.732Z,96482.03
2023-02-27T05:56:43.136Z,96483.22
2023-02-27T05:59:28.295Z,96487.88
2023-02-27T06:02:00.361Z,96488.78
2023-02-27T06:04:32.016Z,96473.53
2023-02-27T06:07:06.917Z,96494.94
2023-02-27T06:09:39.680Z,96487.84
2023-02-27T06:12:11.310Z,96490.59
2023-02-27T06:14:42.839Z,96491.41
2023-02-27T06:17:14.542Z,96496.47
2023-02-27T06:19:46.163Z,96491.28
2023-02-27T06:22:17.733Z,96488.69
2023-02-27T06:24:49.446Z,96494.06
2023-02-27T06:27:21.072Z,96501.22
2023-02-27T06:29:54.167Z,96489.88
2023-02-27T06:32:26.155Z,96502.78
2023-02-27T06:34:57.798Z,96506.34
2023-02-27T06:37:29.405Z,96496.44
2023-02-27T06:40:01.048Z,96498.91
2023-02-27T06:42:32.947Z,96502.59
2023-02-27T06:45:05.853Z,96501.84
2023-02-27T06:47:39.957Z,96508.94
2023-02-27T06:50:13.536Z,96512.34
2023-02-27T06:52:45.092Z,96512.34
2023-02-27T06:55:22.618Z,96521.84
2023-02-27T06:57:54.213Z,96514.44
2023-02-27T07:00:26.011Z,96510.09
2023-02-27T07:02:57.665Z,96514.84
2023-02-27T07:05:29.260Z,96524.75
2023-02-27T07:08:04.747Z,96521.19
2023-02-27T07:10:36.345Z,96527.19
2023-02-27T07:13:07.884Z,96527.91
2023-02-27T07:15:40.097Z,96525.97
2023-02-27T07:18:11.877Z,96540.94
2023-02-27T07:20:43.581Z,96539.06
2023-02-27T07:23:15.225Z,96535.44
2023-02-27T07:25:48.419Z,96548.59
2023-02-27T07:28:20.544Z,96547.00
2023-02-27T07:30:54.956Z,96550.34
2023-02-27T07:33:26.663Z,96550.56
2023-02-27T07:35:58.264Z,96550.34
2023-02-27T07:38:32.239Z,96545.50
2023-02-27T07:41:04.046Z,96553.28
2023-02-27T07:43:35.653Z,96552.84
2023-02-27T07:46:07.306Z,96562.28
2023-02-27T07:48:40.392Z,96559.63
2023-02-27T07:51:11.931Z,96565.75
2023-02-27T07:53:45.807Z,96575.28
2023-02-27T07:56:17.515Z,96565.91
2023-02-27T07:58:49.159Z,96568.16
2023-02-27T08:01:23.039Z,96559.25
2023-02-27T08:03:56.454Z,96575.25
2023-02-27T08:06:28.430Z,96577.41
2023-02-27T08:09:00.304Z,96557.38
2023-02-27T08:11:31.828Z,96576.03
2023-02-27T08:14:03.490Z,96568.19
2023-02-27T08:16:35.152Z,96579.25
2023-02-27T08:19:06.931Z,96585.66
2023-02-27T08:21:38.430Z,96588.19
2023-02-27T08:24:10.909Z,96583.25
2023-02-27T08:26:42.458Z,96586.88
2023-02-27T08:29:15.561Z,96586.75
2023-02-27T08:31:48.878Z,96597.50
2023-02-27T08:34:20.587Z,96590.38
2023-02-27T08:36:52.901Z,96577.03
2023-02-27T08:39:24.454Z,96590.34
2023-02-27T08:41:56.112Z,96594.63
2023-02-27T08:44:27.670Z,96584.66
2023-02-27T08:46:59.272Z,96593.69
2023-02-27T08:49:33.172Z,96595.69
2023-02-27T08:52:05.758Z,96599.56
2023-02-27T08:54:37.809Z,96601.31
2023-02-27T08:57:12.350Z,96609.97
2023-02-27T08:59:44.012Z,96612.50
2023-02-27T09:02:15.974Z,96605.75
2023-02-27T09:04:47.566Z,96616.91
2023-02-27T09:07:21.226Z,96620.66
2023-02-27T09:09:53.000Z,96614.53
2023-02-27T09:12:24.565Z,96608.50
2023-02-27T09:14:56.199Z,96609.75
2023-02-27T09:17:27.786Z,96617.88
2023-02-27T09:20:00.131Z,96623.81
2023-02-27T09:22:31.680Z,96632.78
2023-02-27T09:25:03.717Z,96644.06
2023-02-27T09:27:36.007Z,96632.88
2023-02-27T09:30:09.795Z,96636.06
2023-02-27T09:32:41.468Z,96644.63
2023-02-27T09:35:15.815Z,96634.66
2023-02-27T09:37:49.335Z,96647.03
2023-02-27T09:40:29.376Z,96649.84
2023-02-27T09:43:09.244Z,96646.69
2023-02-27T09:45:41.250Z,96653.53
2023-02-27T09:48:30.017Z,96654.41
2023-02-27T09:51:02.261Z,96655.91
2023-02-27T09:53:41.570Z,96655.09
2023-02-27T09:56:35.616Z,96655.31
2023-02-27T09:59:31.689Z,96659.66
2023-02-27T10:03:03.924Z,96671.47
2023-02-27T10:05:44.079Z,96680.59
2023-02-27T10:08:53.915Z,96684.38
2023-02-27T10:12:12.642Z,96681.84
2023-02-27T10:15:27.115Z,96698.63
2023-02-27T10:18:26.933Z,96693.09
2023-02-27T10:21:24.317Z,96701.84
2023-02-27T10:24:29.509Z,96703.47
2023-02-27T10:27:05.696Z,96702.88
2023-02-27T10:29:41.700Z,96704.09
2023-02-27T10:32:25.425Z,96674.13
2023-02-27T10:35:17.828Z,96704.16
2023-02-27T10:37:59.133Z,96712.72
2023-02-27T10:40:35.051Z,96695.38
2023-02-27T10:43:07.214Z,96711.81
2023-02-27T10:45:39.053Z,96723.81
2023-02-27T10:48:11.658Z,96711.25
2023-02-27T10:50:52.603Z,96730.50
2023-02-27T10:53:27.895Z,96733.19
2023-02-27T10:56:08.094Z,96720.97
2023-02-27T10:58:39.684Z,96733.53
2023-02-27T11:01:12.637Z,96727.59
2023-02-27T11:03:44.734Z,96724.13
2023-02-27T11:06:26.693Z,96735.66
2023-02-27T11:09:33.292Z,96735.53
2023-02-27T11:12:29.586Z,96735.25
2023-02-27T11:15:11.679Z,96736.25
2023-02-27T11:17:44.000Z,96734.34
2023-02-27T11:20:37.077Z,96725.97
2023-02-27T11:23:21.809Z,96719.75
2023-02-27T11:26:15.289Z,96711.41
2023-02-27T11:29:02.944Z,96737.19
2023-02-27T11:31:37.175Z,96728.50
2023-02-27T11:34:39.860Z,96729.28
2023-02-27T11:37:32.485Z,96733.72
2023-02-27T11:40:16.365Z,96734.34
2023-02-27T11:42:58.411Z,96737.13
2023-02-27T11:46:17.705Z,96738.97
2023-02-27T11:48:57.509Z,96730.03
2023-02-27T11:51:50.876Z,96725.69
2023-02-27T11:54:49.885Z,96738.16
2023-02-27T11:57:35.118Z,96740.56
2023-02-27T12:00:29.587Z,96721.97
2023-02-27T12:03:46.235Z,96748.69
2023-02-27T12:06:35.760Z,96733.91
2023-02-27T12:09:34.545Z,96727.97
2023-02-27T12:12:26.415Z,96745.16
2023-02-27T12:15:18.299Z,96736.53
2023-02-27T12:18:21.298Z,96732.19
2023-02-27T12:21:13.331Z,96736.16
2023-02-27T12:23:58.676Z,96742.25
2023-02-27T12:26:39.920Z,96740.50
2023-02-27T12:29:22.364Z,96735.25
2023-02-27T12:32:48.091Z,96742.16
2023-02-27T12:35:27.743Z,96741.78
2023-02-27T12:38:01.546Z,96737.00
2023-02-27T12:40:42.464Z,96747.28
2023-02-27T12:43:50.826Z,96736.91
2023-02-27T12:46:40.723Z,96741.50
2023-02-27T12:49:51.602Z,96745.03
2023-02-27T12:52:38.430Z,96729.50
2023-02-27T12:55:26.056Z,96733.50
2023-02-27T12:58:41.326Z,96740.91
2023-02-27T13:01:35.365Z,96752.19
2023-02-27T13:04:18.403Z,96749.59
2023-02-27T13:07:04.232Z,96755.91
2023-02-27T13:09:41.292Z,96755.78
2023-02-27T13:12:50.634Z,96756.69
2023-02-27T13:15:33.360Z,96758.03
2023-02-27T13:18:23.638Z,96749.78
2023-02-27T13:21:23.805Z,96755.94
2023-02-27T13:24:24.072Z,96752.84
2023-02-27T13:27:03.328Z,96752.81
2023-02-27T13:29:47.601Z,96747.63
2023-02-27T13:32:44.485Z,96746.63
2023-02-27T13:35:36.126Z,96749.91
2023-02-27T13:38:34.472Z,96747.91
2023-02-27T13:41:21.400Z,96761.06
2023-02-27T13:44:21.102Z,96744.16
2023-02-27T13:46:52.735Z,96750.44
2023-02-27T13:49:29.611Z,96759.50
2023-02-27T13:52:02.350Z,96764.88
2023-02-27T13:54:40.875Z,96732.47
2023-02-27T13:57:21.502Z,96760.00
2023-02-27T13:59:57.755Z,96760.38
2023-02-27T14:02:59.425Z,96761.69
2023-02-27T14:05:55.455Z,96757.50
2023-02-27T14:08:30.462Z,96764.00
2023-02-27T14:11:24.524Z,96766.47
2023-02-27T14:13:57.673Z,96759.59
2023-02-27T14:16:38.197Z,96768.41
2023-02-27T14:19:15.809Z,96762.97
2023-02-27T14:22:30.080Z,96772.91
2023-02-27T14:25:40.416Z,96768.09
2023-02-27T14:28:41.458Z,96769.75
2023-02-27T14:31:36.625Z,96767.28
2023-02-27T14:34:15.433Z,96759.97
2023-02-27T14:37:01.584Z,96768.41
2023-02-27T14:39:38.450Z,96770.88
2023-02-27T14:43:04.454Z,96770.34
2023-02-27T14:45:36.337Z,96766.38
2023-02-27T14:48:10.666Z,96764.38
2023-02-27T14:50:42.356Z,96767.69
2023-02-27T14:53:24.954Z,96771.53
2023-02-27T14:56:00.348Z,96761.44
2023-02-27T14:58:34.543Z,96761.38
2023-02-27T15:01:09.761Z,96773.34
2023-02-27T15:03:52.818Z,96777.09
2023-02-27T15:06:44.258Z,96760.88
2023-02-27T15:09:43.484Z,96766.41
2023-02-27T15:12:20.591Z,96768.16
2023-02-27T15:14:59.863Z,96780.22
2023-02-27T15:17:46.447Z,96777.81
2023-02-27T15:20:32.637Z,96775.47
2023-02-27T15:23:26.199Z,96782.59
2023-02-27T15:25:59.758Z,96786.44
2023-02-27T15:28:38.334Z,96787.50
2023-02-27T15:31:17.739Z,96793.59
2023-02-27T15:33:51.299Z,96793.56
2023-02-27T15:36:27.336Z,96800.22
2023-02-27T15:39:17.535Z,96793.16
2023-02-27T15:41:58.925Z,96794.31
2023-02-27T15:44:44.446Z,96808.63
2023-02-27T15:47:25.949Z,96804.50
2023-02-27T15:50:10.187Z,96803.72
2023-02-27T15:52:49.380Z,96801.28
2023-02-27T15:55:29.255Z,96812.88
2023-02-27T15:58:03.341Z,96806.47
2023-02-27T16:00:35.811Z,96812.50
2023-02-27T16:03:09.200Z,96821.41
2023-02-27T16:05:41.988Z,96811.25
2023-02-27T16:08:18.619Z,96821.00
2023-02-27T16:10:51.902Z,96816.78
2023-02-27T16:13:38.514Z,96836.22
2023-02-27T16:16:35.314Z,96845.31
2023-02-27T16:19:27.138Z,96842.22
2023-02-27T16:22:17.049Z,96842.94
2023-02-27T16:24:49.768Z,96847.56
2023-02-27T16:27:24.638Z,96845.97
2023-02-27T16:30:02.438Z,96852.31
2023-02-27T16:32:37.885Z,96858.69
2023-02-27T16:35:21.523Z,96866.78
2023-02-27T16:37:59.822Z,96868.00
2023-02-27T16:40:31.557Z,96866.06
2023-02-27T16:43:03.622Z,96869.75
2023-02-27T16:45:35.421Z,96881.69
2023-02-27T16:48:07.494Z,96877.72
2023-02-27T16:50:43.093Z,96876.84
2023-02-27T16:53:14.700Z,96881.50
2023-02-27T16:55:46.336Z,96879.94
2023-02-27T16:58:18.809Z,96879.41
2023-02-27T17:00:50.413Z,96882.38
2023-02-27T17:03:22.782Z,96880.84
2023-02-27T17:05:54.533Z,96889.34
2023-02-27T17:08:26.181Z,96897.09
2023-02-27T17:10:58.336Z,96902.50
2023-02-27T17:13:30.090Z,96895.97
2023-02-27T17:16:04.184Z,96897.41
2023-02-27T17:18:37.599Z,96888.59
2023-02-27T17:21:09.189Z,96898.06
2023-02-27T17:23:40.716Z,96907.59
2023-02-27T17:26:13.478Z,96895.22
2023-02-27T17:28:45.031Z,96898.84
2023-02-27T17:31:18.738Z,96895.22
2023-02-27T17:33:53.937Z,96901.34
2023-02-27T17:36:26.285Z,96908.88
2023-02-27T17:39:01.664Z,96917.31
2023-02-27T17:41:34.015Z,96924.19
2023-02-27T17:44:11.861Z,96924.63
2023-02-27T17:46:43.441Z,96938.16
2023-02-27T17:49:15.634Z,96935.72
2023-02-27T17:51:47.326Z,96940.25
2023-02-27T17:54:19.132Z,96947.53
2023-02-27T17:56:50.662Z,96948.75
2023-02-27T17:59:22.444Z,96942.44
2023-02-27T18:01:55.565Z,96947.78
2023-02-27T18:04:27.628Z,96964.41
2023-02-27T18:06:59.169Z,96943.78
2023-02-27T18:09:33.114Z,96950.28
2023-02-27T18:12:04.989Z,96954.16
2023-02-27T18:14:37.256Z,96957.53
2023-02-27T18:17:12.959Z,96962.78
2023-02-27T18:19:44.710Z,96953.41
2023-02-27T18:22:16.410Z,96963.47
2023-02-27T18:24:49.144Z,96960.91
2023-02-27T18:27:22.133Z,96957.72
2023-02-27T18:29:54.042Z,96966.84
2023-02-27T18:32:26.122Z,96965.13
2023-02-27T18:34:58.204Z,96952.03
2023-02-27T18:37:29.735Z,96973.84
2023-02-27T18:40:01.361Z,96972.25
2023-02-27T18:42:35.356Z,96976.47
2023-02-27T18:45:09.148Z,96980.44
2023-02-27T18:47:41.745Z,96973.19
2023-02-27T18:50:13.979Z,96970.25
2023-02-27T18:52:47.294Z,96982.28
2023-02-27T18:55:19.832Z,96975.31
2023-02-27T18:57:51.401Z,96974.22
2023-02-27T19:00:24.630Z,96981.81
2023-02-27T19:02:56.924Z,96980.25
2023-02-27T19:05:28.781Z,96975.97
2023-02-27T19:08:00.417Z,96978.25
2023-02-27T19:10:34.888Z,96968.53
2023-02-27T19:13:09.397Z,96964.81
2023-02-27T19:15:41.079Z,96976.41
2023-02-27T19:18:12.620Z,96975.28
2023-02-27T19:20:44.375Z,96975.75
2023-02-27T19:23:15.910Z,96977.09
2023-02-27T19:25:49.086Z,96983.81
2023-02-27T19:28:20.604Z,96979.28
2023-02-27T19:30:52.399Z,96986.34
2023-02-27T19:33:24.307Z,96981.38
2023-02-27T19:35:55.855Z,96977.78
2023-02-27T19:38:27.396Z,96981.25
2023-02-27T19:41:11.887Z,96981.75
2023-02-27T19:43:43.879Z,96977.91
2023-02-27T19:46:20.414Z,96979.69
2023-02-27T19:48:54.482Z,96966.19
2023-02-27T19:51:26.978Z,96972.69
2023-02-27T19:53:58.611Z,96965.38
2023-02-27T19:56:31.209Z,96961.75
2023-02-27T19:59:03.321Z,96969.69
2023-02-27T20:01:38.860Z,96968.28
2023-02-27T20:04:11.342Z,96974.69
2023-02-27T20:06:45.101Z,96971.41
2023-02-27T20:09:18.618Z,96972.69
2023-02-27T20:11:55.380Z,96970.38
2023-02-27T20:14:28.063Z,96965.91
2023-02-27T20:16:59.749Z,96957.34
2023-02-27T20:19:31.416Z,96958.66
2023-02-27T20:22:03.421Z,96959.50
2023-02-27T20:24:35.220Z,96959.78
2023-02-27T20:27:09.612Z,96952.78
2023-02-27T20:29:42.460Z,96954.19
2023-02-27T20:32:16.529Z,96956.22
2023-02-27T20:34:50.283Z,96951.38
2023-02-27T20:37:25.438Z,96951.22
2023-02-27T20:40:00.047Z,96944.75
2023-02-27T20:42:32.567Z,96940.53
2023-02-27T20:45:05.507Z,96950.34
2023-02-27T20:47:38.226Z,96940.72
2023-02-27T20:50:13.584Z,96937.88
2023-02-27T20:52:48.279Z,96935.34
2023-02-27T20:55:22.002Z,96928.16
2023-02-27T20:57:54.559Z,96934.91
2023-02-27T21:00:26.821Z,96934.78
2023-02-27T21:03:00.791Z,96927.34
2023-02-27T21:05:34.152Z,96928.47
2023-02-27T21:08:09.922Z,96927.41
2023-02-27T21:10:41.956Z,96914.88
2023-02-27T21:13:13.469Z,96928.63
2023-02-27T21:15:45.945Z,96913.06
2023-02-27T21:18:17.533Z,96916.56
2023-02-27T21:20:50.541Z,96904.44
2023-02-27T21:23:22.067Z,96918.91
2023-02-27T21:25:53.719Z,96911.41
2023-02-27T21:28:25.573Z,96912.91
2023-02-27T21:30:57.816Z,96903.97
2023-02-27T21:33:29.390Z,96901.94
2023-02-27T21:36:01.202Z,96903.44
2023-02-27T21:38:35.276Z,96903.59
2023-02-27T21:41:11.764Z,96906.41
2023-02-27T21:43:43.842Z,96903.34
2023-02-27T21:46:15.487Z,96905.25
2023-02-27T21:48:47.032Z,96892.09
2023-02-27T21:51:33.053Z,96901.66
2023-02-27T21:54:11.968Z,96904.41
2023-02-27T21:56:45.658Z,96900.41
2023-02-27T21:59:19.340Z,96896.84
2023-02-27T22:01:51.096Z,96893.44
2023-02-27T22:04:23.466Z,96895.16
2023-02-27T22:06:55.506Z,96901.34
2023-02-27T22:09:27.298Z,96891.88
2023-02-27T22:11:58.826Z,96892.38
2023-02-27T22:14:30.383Z,96887.81
2023-02-27T22:17:02.002Z,96899.25
2023-02-27T22:19:33.571Z,96894.69
2023-02-27T22:22:05.423Z,96883.25
2023-02-27T22:24:37.034Z,96892.84
2023-02-27T22:27:09.351Z,96892.75
2023-02-27T22:29:42.340Z,96893.47
2023-02-27T22:32:14.758Z,96893.25
2023-02-27T22:34:46.326Z,96890.81
2023-02-27T22:37:19.770Z,96886.25
2023-02-27T22:39:51.320Z,96888.28
2023-02-27T22:42:23.696Z,96898.53
2023-02-27T22:44:58.717Z,96891.09
2023-02-27T22:47:31.479Z,96884.78
2023-02-27T22:50:04.260Z,96887.66
2023-02-27T22:52:37.243Z,96886.59
2023-02-27T22:55:09.638Z,96874.06
2023-02-27T22:57:41.237Z,96875.72
2023-02-27T23:00:13.259Z,96873.47
2023-02-27T23:02:44.962Z,96869.16
2023-02-27T23:05:16.546Z,96876.72
2023-02-27T23:07:48.076Z,96873.84
2023-02-27T23:10:19.675Z,96873.72
2023-02-27T23:12:51.449Z,96875.00
2023-02-27T23:15:23.069Z,96874.25
2023-02-27T23:17:58.562Z,96872.19
2023-02-27T23:20:30.439Z,96876.41
2023-02-27T23:23:01.970Z,96874.84
2023-02-27T23:25:35.696Z,96868.31
2023-02-27T23:28:07.933Z,96871.25
2023-02-27T23:30:39.548Z,96863.13
2023-02-27T23:33:11.103Z,96871.19
2023-02-27T23:35:43.366Z,96870.81
2023-02-27T23:38:15.029Z,96871.03
2023-02-27T23:40:49.944Z,96864.16
2023-02-27T23:43:40.641Z,96867.09
2023-02-27T23:46:16.267Z,96867.94
2023-02-27T23:48:48.388Z,96872.63
2023-02-27T23:51:19.928Z,96870.16
2023-02-27T23:53:52.627Z,96866.06
2023-02-27T23:56:28.919Z,96873.06
2023-02-27T23:59:04.767Z,96875.72
